createdAt,value
2022-08-18T00:01:14.435Z,101507.69
2022-08-18T00:03:57.023Z,101483.28
2022-08-18T00:06:30.899Z,101463.28
2022-08-18T00:09:01.134Z,101447.66
2022-08-18T00:11:41.504Z,101426.00
2022-08-18T00:14:21.607Z,101428.03
2022-08-18T00:16:52.879Z,101410.59
2022-08-18T00:19:47.129Z,101395.91
2022-08-18T00:22:14.655Z,101361.91
2022-08-18T00:24:48.129Z,101356.84
2022-08-18T00:27:21.581Z,101349.03
2022-08-18T00:29:50.358Z,101355.16
2022-08-18T00:32:21.055Z,101362.22
2022-08-18T00:34:50.389Z,101364.06
2022-08-18T00:37:18.459Z,101372.81
2022-08-18T00:39:48.122Z,101376.28
2022-08-18T00:42:29.891Z,101362.47
2022-08-18T00:45:02.840Z,101360.78
2022-08-18T00:47:42.507Z,101356.47
2022-08-18T00:50:23.815Z,101358.38
2022-08-18T00:52:56.559Z,101348.75
2022-08-18T00:55:25.610Z,101335.69
2022-08-18T00:58:01.351Z,101327.03
2022-08-18T01:00:29.817Z,101320.06
2022-08-18T01:03:01.432Z,101310.44
2022-08-18T01:05:40.840Z,101307.91
2022-08-18T01:08:14.381Z,101307.91
2022-08-18T01:10:43.149Z,101319.19
2022-08-18T01:13:11.895Z,101328.81
2022-08-18T01:15:40.372Z,101339.41
2022-08-18T01:18:30.236Z,101319.19
2022-08-18T01:21:24.166Z,101321.00
2022-08-18T01:23:55.711Z,101314.91
2022-08-18T01:26:26.289Z,101335.06
2022-08-18T01:28:54.326Z,101344.69
2022-08-18T01:31:37.892Z,101353.31
2022-08-18T01:34:07.157Z,101363.03
2022-08-18T01:36:37.469Z,101354.41
2022-08-18T01:39:08.876Z,101341.31
2022-08-18T01:41:36.946Z,101343.34
2022-08-18T01:44:05.675Z,101319.16
2022-08-18T01:46:36.632Z,101303.53
2022-08-18T01:49:05.598Z,101284.34
2022-08-18T01:51:40.408Z,101271.34
2022-08-18T01:54:12.944Z,101269.78
2022-08-18T01:56:43.117Z,101260.22
2022-08-18T01:59:14.620Z,101255.97
2022-08-18T02:01:50.688Z,101250.81
2022-08-18T02:04:41.333Z,101244.69
2022-08-18T02:07:11.432Z,101229.19
2022-08-18T02:09:42.528Z,101213.72
2022-08-18T02:12:12.022Z,101202.53
2022-08-18T02:14:40.776Z,101172.16
2022-08-18T02:17:11.047Z,101160.13
2022-08-18T02:19:41.154Z,101137.56
2022-08-18T02:22:10.276Z,101121.25
2022-08-18T02:24:38.935Z,101110.03
2022-08-18T02:27:10.055Z,101096.22
2022-08-18T02:29:38.338Z,101092.03
2022-08-18T02:32:07.423Z,101102.50
2022-08-18T02:34:35.793Z,101114.63
2022-08-18T02:37:04.377Z,101126.72
2022-08-18T02:39:35.282Z,101141.41
2022-08-18T02:42:03.255Z,101148.22
2022-08-18T02:44:33.494Z,101165.66
2022-08-18T02:47:02.248Z,101146.44
2022-08-18T02:49:30.178Z,101133.59
2022-08-18T02:51:58.168Z,101113.75
2022-08-18T02:54:26.517Z,101093.00
2022-08-18T02:56:54.681Z,101078.25
2022-08-18T02:59:24.303Z,101056.63
2022-08-18T03:01:56.423Z,101039.38
2022-08-18T03:04:29.611Z,101009.00
2022-08-18T03:07:00.270Z,100984.66
2022-08-18T03:09:29.314Z,100982.25
2022-08-18T03:11:57.309Z,100975.53
2022-08-18T03:14:25.682Z,100965.84
2022-08-18T03:16:55.456Z,100966.06
2022-08-18T03:19:24.717Z,100951.31
2022-08-18T03:21:53.259Z,100949.63
2022-08-18T03:24:22.761Z,100947.22
2022-08-18T03:26:53.030Z,100943.88
2022-08-18T03:29:21.151Z,100927.56
2022-08-18T03:31:49.164Z,100905.03
2022-08-18T03:34:20.666Z,100899.03
2022-08-18T03:36:50.000Z,100907.78
2022-08-18T03:39:20.126Z,100906.00
2022-08-18T03:41:59.721Z,100901.53
2022-08-18T03:44:30.738Z,100885.00
2022-08-18T03:46:59.427Z,100879.03
2022-08-18T03:49:28.882Z,100869.41
2022-08-18T03:52:00.163Z,100868.56
2022-08-18T03:54:28.709Z,100881.66
2022-08-18T03:56:56.657Z,100889.56
2022-08-18T03:59:27.052Z,100890.41
2022-08-18T04:01:56.019Z,100894.84
2022-08-18T04:04:27.712Z,100895.69
2022-08-18T04:06:59.455Z,100903.59
2022-08-18T04:09:30.820Z,100912.22
2022-08-18T04:12:03.874Z,100922.63
2022-08-18T04:14:34.891Z,100944.25
2022-08-18T04:17:02.806Z,100970.13
2022-08-18T04:19:34.503Z,100990.16
2022-08-18T04:22:05.214Z,101001.44
2022-08-18T04:24:34.688Z,101011.75
2022-08-18T04:27:05.863Z,101004.94
2022-08-18T04:29:33.833Z,101017.13
2022-08-18T04:32:04.948Z,101013.66
2022-08-18T04:34:34.075Z,101018.94
2022-08-18T04:37:03.893Z,101020.75
2022-08-18T04:39:33.150Z,101026.03
2022-08-18T04:42:03.647Z,101039.81
2022-08-18T04:44:31.905Z,101059.84
2022-08-18T04:47:01.741Z,101072.78
2022-08-18T04:49:31.575Z,101090.09
2022-08-18T04:52:30.982Z,101100.50
2022-08-18T04:55:08.493Z,101099.56
2022-08-18T04:57:36.712Z,101102.31
2022-08-18T05:00:08.331Z,101107.59
2022-08-18T05:02:36.289Z,101099.78
2022-08-18T05:05:04.883Z,101114.66
2022-08-18T05:07:33.459Z,101121.63
2022-08-18T05:10:01.658Z,101123.31
2022-08-18T05:12:31.096Z,101130.25
2022-08-18T05:14:59.272Z,101136.28
2022-08-18T05:17:30.543Z,101127.38
2022-08-18T05:20:00.167Z,101137.94
2022-08-18T05:22:31.134Z,101129.31
2022-08-18T05:25:00.068Z,101133.66
2022-08-18T05:27:35.276Z,101138.78
2022-08-18T05:30:04.023Z,101146.59
2022-08-18T05:32:46.597Z,101155.25
2022-08-18T05:35:23.306Z,101173.50
2022-08-18T05:38:17.533Z,101188.13
2022-08-18T05:40:48.116Z,101201.22
2022-08-18T05:43:18.246Z,101197.72
2022-08-18T05:45:46.243Z,101203.72
2022-08-18T05:48:15.523Z,101217.66
2022-08-18T05:50:44.271Z,101233.38
2022-08-18T05:53:16.235Z,101251.75
2022-08-18T05:56:09.476Z,101262.94
2022-08-18T05:58:44.056Z,101264.75
2022-08-18T06:01:23.524Z,101265.69
2022-08-18T06:03:55.165Z,101264.00
2022-08-18T06:06:27.931Z,101278.13
2022-08-18T06:09:03.204Z,101274.56
2022-08-18T06:11:31.124Z,101289.44
2022-08-18T06:14:01.408Z,101304.13
2022-08-18T06:16:44.563Z,101323.09
2022-08-18T06:19:29.783Z,101360.34
2022-08-18T06:22:10.478Z,101392.44
2022-08-18T06:24:47.155Z,101419.22
2022-08-18T06:27:24.248Z,101443.41
2022-08-18T06:30:05.366Z,101456.28
2022-08-18T06:32:48.933Z,101473.59
2022-08-18T06:35:26.533Z,101491.97
2022-08-18T06:38:20.605Z,101491.88
2022-08-18T06:40:48.839Z,101485.00
2022-08-18T06:43:19.686Z,101458.91
2022-08-18T06:45:53.041Z,101458.06
2022-08-18T06:48:31.217Z,101496.94
2022-08-18T06:51:02.540Z,101551.53
2022-08-18T06:53:52.578Z,101593.88
2022-08-18T06:56:27.377Z,101612.16
2022-08-18T06:58:55.991Z,101628.66
2022-08-18T07:01:26.299Z,101624.31
2022-08-18T07:03:57.335Z,101586.91
2022-08-18T07:06:30.218Z,101554.88
2022-08-18T07:09:22.799Z,101528.94
2022-08-18T07:12:03.697Z,101507.50
2022-08-18T07:14:32.580Z,101486.81
2022-08-18T07:17:13.705Z,101493.75
2022-08-18T07:19:42.666Z,101524.19
2022-08-18T07:22:14.703Z,101541.50
2022-08-18T07:24:47.499Z,101558.00
2022-08-18T07:27:17.577Z,101564.00
2022-08-18T07:30:03.409Z,101617.03
2022-08-18T07:32:37.462Z,101663.03
2022-08-18T07:35:09.605Z,101722.03
2022-08-18T07:37:45.967Z,101765.28
2022-08-18T07:40:23.512Z,101770.25
2022-08-18T07:43:01.207Z,101810.84
2022-08-18T07:45:36.187Z,101849.66
2022-08-18T07:48:34.657Z,101899.81
2022-08-18T07:51:08.523Z,101846.59
2022-08-18T07:53:55.986Z,101836.84
2022-08-18T07:56:33.815Z,101814.09
2022-08-18T07:59:08.186Z,101787.09
2022-08-18T08:01:45.073Z,101781.81
2022-08-18T08:04:26.276Z,101795.69
2022-08-18T08:07:22.779Z,101813.91
2022-08-18T08:09:58.317Z,101823.28
2022-08-18T08:12:37.260Z,101839.91
2022-08-18T08:15:14.701Z,101827.72
2022-08-18T08:17:54.121Z,101832.81
2022-08-18T08:20:32.573Z,101819.91
2022-08-18T08:23:15.085Z,101785.22
2022-08-18T08:25:53.377Z,101794.00
2022-08-18T08:28:35.046Z,101782.56
2022-08-18T08:31:33.409Z,101803.53
2022-08-18T08:34:06.126Z,101822.03
2022-08-18T08:36:39.876Z,101853.34
2022-08-18T08:39:13.993Z,101867.34
2022-08-18T08:41:44.788Z,101869.00
2022-08-18T08:44:21.538Z,101877.72
2022-08-18T08:46:56.431Z,101851.53
2022-08-18T08:49:33.761Z,101837.72
2022-08-18T08:52:08.343Z,101801.31
2022-08-18T08:54:44.652Z,101794.31
2022-08-18T08:57:15.488Z,101823.72
2022-08-18T08:59:47.438Z,101849.97
2022-08-18T09:02:48.229Z,101858.75
2022-08-18T09:05:21.103Z,101892.53
2022-08-18T09:08:12.023Z,101924.69
2022-08-18T09:11:31.117Z,101946.28
2022-08-18T09:14:44.135Z,101957.59
2022-08-18T09:17:33.913Z,101954.84
2022-08-18T09:20:29.272Z,101990.53
2022-08-18T09:23:07.145Z,102003.47
2022-08-18T09:25:47.324Z,102049.34
2022-08-18T09:28:18.131Z,102037.16
2022-08-18T09:30:51.442Z,102032.72
2022-08-18T09:33:34.308Z,102063.94
2022-08-18T09:36:28.801Z,102092.34
2022-08-18T09:39:23.188Z,102105.28
2022-08-18T09:41:55.749Z,102076.56
2022-08-18T09:45:04.237Z,102033.75
2022-08-18T09:48:04.008Z,102068.50
2022-08-18T09:50:39.518Z,102118.00
2022-08-18T09:53:34.083Z,102133.47
2022-08-18T09:58:58.790Z,102136.50
2022-08-18T10:01:38.212Z,102184.25
2022-08-18T10:04:36.831Z,102230.22
2022-08-18T10:07:43.540Z,102268.47
2022-08-18T10:11:02.341Z,102233.47
2022-08-18T10:13:25.133Z,102174.25
2022-08-18T10:16:12.300Z,102135.16
2022-08-18T10:18:54.614Z,102087.34
2022-08-18T10:21:31.195Z,102134.16
2022-08-18T10:24:34.866Z,102179.34
2022-08-18T10:27:05.596Z,102163.75
2022-08-18T10:29:57.915Z,102154.88
2022-08-18T10:32:52.151Z,102104.28
2022-08-18T10:35:57.845Z,102086.91
2022-08-18T10:38:53.379Z,102062.50
2022-08-18T10:41:27.313Z,102037.00
2022-08-18T10:44:01.161Z,102029.25
2022-08-18T10:46:36.931Z,102037.00
2022-08-18T10:49:21.512Z,102013.56
2022-08-18T10:52:26.732Z,101949.28
2022-08-18T10:55:23.793Z,101977.13
2022-08-18T10:58:14.527Z,101984.03
2022-08-18T11:00:57.853Z,102010.19
2022-08-18T11:03:51.087Z,102064.88
2022-08-18T11:06:23.591Z,102097.19
2022-08-18T11:08:57.776Z,102111.06
2022-08-18T11:11:34.743Z,102118.91
2022-08-18T11:14:16.581Z,102168.50
2022-08-18T11:16:54.163Z,102219.75
2022-08-18T11:19:24.504Z,102248.28
2022-08-18T11:21:54.364Z,102337.97
2022-08-18T11:24:26.544Z,102459.81
2022-08-18T11:26:56.653Z,102569.38
2022-08-18T11:29:32.211Z,102618.91
2022-08-18T11:32:05.395Z,102567.34
2022-08-18T11:34:45.519Z,102512.44
2022-08-18T11:43:29.722Z,102341.56
2022-08-18T11:46:00.162Z,102324.25
2022-08-18T11:48:51.830Z,102295.72
2022-08-18T11:51:25.700Z,102317.69
2022-08-18T11:53:59.226Z,102307.09
2022-08-18T11:56:31.617Z,102271.97
2022-08-18T11:59:02.956Z,102252.13
2022-08-18T12:04:26.893Z,102383.47
2022-08-18T12:07:04.599Z,102480.09
2022-08-18T12:10:16.598Z,102518.44
2022-08-18T12:12:30.535Z,102532.16
2022-08-18T12:15:07.999Z,102519.09
2022-08-18T12:17:44.600Z,102471.06
2022-08-18T12:20:20.950Z,102455.47
2022-08-18T12:22:50.688Z,102401.50
2022-08-18T12:25:25.462Z,102356.31
2022-08-18T12:27:53.994Z,102345.16
2022-08-18T12:30:22.125Z,102334.75
2022-08-18T12:33:01.029Z,102323.41
2022-08-18T12:38:24.545Z,102348.88
2022-08-18T12:40:53.249Z,102316.50
2022-08-18T12:43:21.832Z,102299.22
2022-08-18T12:45:50.076Z,102270.59
2022-08-18T12:48:18.339Z,102254.88
2022-08-18T12:50:58.301Z,102272.28
2022-08-18T12:53:58.404Z,102281.84
2022-08-18T12:56:24.711Z,102261.13
2022-08-18T12:58:53.998Z,102237.78
2022-08-18T13:01:23.266Z,102223.06
2022-08-18T13:04:10.672Z,102181.47
2022-08-18T13:06:45.389Z,102161.75
2022-08-18T13:09:35.325Z,102156.66
2022-08-18T13:12:14.918Z,102161.00
2022-08-18T13:14:44.623Z,102174.19
2022-08-18T13:17:29.772Z,102162.06
2022-08-18T13:20:01.551Z,102190.81
2022-08-18T13:22:32.223Z,102225.59
2022-08-18T13:25:02.142Z,102205.75
2022-08-18T13:27:33.087Z,102219.66
2022-08-18T13:30:30.305Z,102242.44
2022-08-18T13:33:00.433Z,102248.25
2022-08-18T13:35:37.997Z,102283.09
2022-08-18T13:38:15.660Z,102291.81
2022-08-18T13:40:48.938Z,102288.38
2022-08-18T13:43:17.929Z,102283.94
2022-08-18T13:45:53.063Z,102298.78
2022-08-18T13:48:25.688Z,102297.13
2022-08-18T13:50:55.960Z,102282.25
2022-08-18T13:53:26.336Z,102286.81
2022-08-18T13:55:59.167Z,102278.19
2022-08-18T13:58:28.197Z,102265.44
2022-08-18T14:01:16.257Z,102249.88
2022-08-18T14:03:48.171Z,102266.63
2022-08-18T14:06:22.796Z,102264.06
2022-08-18T14:08:52.829Z,102255.56
2022-08-18T14:11:27.628Z,102248.91
2022-08-18T14:14:01.153Z,102257.50
2022-08-18T14:16:30.843Z,102273.41
2022-08-18T14:19:17.658Z,102295.13
2022-08-18T14:22:06.070Z,102290.25
2022-08-18T14:24:52.677Z,102340.94
2022-08-18T14:27:28.347Z,102359.41
2022-08-18T14:30:05.231Z,102386.56
2022-08-18T14:32:36.400Z,102385.81
2022-08-18T14:35:32.090Z,102392.06
2022-08-18T14:37:56.357Z,102395.66
2022-08-18T14:40:25.218Z,102429.19
2022-08-18T14:42:55.596Z,102453.59
2022-08-18T14:45:34.018Z,102455.50
2022-08-18T14:48:06.609Z,102486.34
2022-08-18T14:50:36.882Z,102485.50
2022-08-18T14:53:05.197Z,102475.94
2022-08-18T14:55:34.095Z,102491.78
2022-08-18T14:58:03.610Z,102485.16
2022-08-18T15:00:35.582Z,102476.84
2022-08-18T15:03:22.142Z,102531.56
2022-08-18T15:06:00.469Z,102589.78
2022-08-18T15:08:29.155Z,102639.09
2022-08-18T15:10:58.531Z,102675.81
2022-08-18T15:13:28.766Z,102693.53
2022-08-18T15:16:01.759Z,102705.19
2022-08-18T15:18:31.378Z,102714.00
2022-08-18T15:21:35.816Z,102698.44
2022-08-18T15:24:24.006Z,102775.72
2022-08-18T15:26:56.757Z,102835.88
2022-08-18T15:29:29.442Z,102868.34
2022-08-18T15:32:02.058Z,102879.59
2022-08-18T15:34:46.984Z,102918.66
2022-08-18T15:37:19.948Z,102907.38
2022-08-18T15:39:55.605Z,102923.00
2022-08-18T15:42:24.523Z,102929.09
2022-08-18T15:44:54.354Z,102903.63
2022-08-18T15:47:25.160Z,102921.22
2022-08-18T15:49:54.813Z,102895.72
2022-08-18T15:52:25.983Z,102869.78
2022-08-18T15:54:58.342Z,102859.53
2022-08-18T15:57:36.013Z,102836.28
2022-08-18T16:00:12.168Z,102845.63
2022-08-18T16:02:44.617Z,102879.13
2022-08-18T16:05:16.997Z,102909.06
2022-08-18T16:07:47.679Z,102921.91
2022-08-18T16:10:17.984Z,102994.09
2022-08-18T16:12:46.553Z,103145.41
2022-08-18T16:15:21.081Z,103234.00
2022-08-18T16:17:51.605Z,103233.94
2022-08-18T16:20:20.721Z,103286.41
2022-08-18T16:22:49.385Z,103292.47
2022-08-18T16:25:18.087Z,103353.63
2022-08-18T16:27:47.902Z,103343.88
2022-08-18T16:30:20.155Z,103320.94
2022-08-18T16:32:48.618Z,103252.63
2022-08-18T16:35:18.413Z,103183.44
2022-08-18T16:37:47.765Z,103187.88
2022-08-18T16:40:15.966Z,103200.13
2022-08-18T16:42:44.203Z,103168.72
2022-08-18T16:45:13.572Z,103152.88
2022-08-18T16:47:42.967Z,103113.66
2022-08-18T16:50:13.641Z,103102.63
2022-08-18T16:52:42.217Z,103120.25
2022-08-18T16:55:12.819Z,103155.31
2022-08-18T16:57:58.856Z,103165.00
2022-08-18T17:00:45.273Z,103120.59
2022-08-18T17:03:32.239Z,103127.75
2022-08-18T17:06:01.839Z,103110.47
2022-08-18T17:08:33.523Z,103084.31
2022-08-18T17:11:01.989Z,103065.25
2022-08-18T17:13:30.385Z,103051.28
2022-08-18T17:15:58.293Z,103006.25
2022-08-18T17:18:28.720Z,102999.06
2022-08-18T17:20:56.674Z,102957.84
2022-08-18T17:23:24.817Z,102943.56
2022-08-18T17:25:52.992Z,102908.63
2022-08-18T17:28:26.398Z,102885.59
2022-08-18T17:30:54.615Z,102882.03
2022-08-18T17:33:26.536Z,102880.13
2022-08-18T17:35:58.580Z,102862.56
2022-08-18T17:38:40.409Z,102832.72
2022-08-18T17:41:08.754Z,102798.72
2022-08-18T17:46:18.097Z,102728.75
2022-08-18T17:48:52.514Z,102704.25
2022-08-18T17:51:34.267Z,102661.38
2022-08-18T17:54:16.412Z,102634.47
2022-08-18T17:56:52.571Z,102623.22
2022-08-18T17:59:46.123Z,102626.72
2022-08-18T18:02:29.746Z,102604.84
2022-08-18T18:04:59.742Z,102555.09
2022-08-18T18:07:32.840Z,102510.31
2022-08-18T18:10:03.451Z,102476.16
2022-08-18T18:12:34.651Z,102434.84
2022-08-18T18:15:05.929Z,102423.31
2022-08-18T18:17:37.715Z,102423.31
2022-08-18T18:20:16.031Z,102417.06
2022-08-18T18:22:46.165Z,102417.16
2022-08-18T18:25:30.226Z,102409.34
2022-08-18T18:28:02.926Z,102374.44
2022-08-18T18:30:32.693Z,102370.09
2022-08-18T18:33:03.602Z,102360.28
2022-08-18T18:35:33.965Z,102359.50
2022-08-18T18:38:06.525Z,102378.81
2022-08-18T18:40:38.778Z,102379.44
2022-08-18T18:43:24.928Z,102383.81
2022-08-18T18:46:29.926Z,102391.00
2022-08-18T18:49:14.651Z,102356.13
2022-08-18T18:51:54.697Z,102341.38
2022-08-18T18:54:50.087Z,102350.16
2022-08-18T18:57:32.104Z,102321.22
2022-08-18T19:00:11.660Z,102302.16
2022-08-18T19:02:48.914Z,102267.22
2022-08-18T19:05:23.896Z,102273.47
2022-08-18T19:08:00.680Z,102276.19
2022-08-18T19:10:37.333Z,102251.72
2022-08-18T19:13:12.530Z,102230.56
2022-08-18T19:16:05.303Z,101856.88
2022-08-18T19:18:38.060Z,101803.03
2022-08-18T19:22:04.050Z,101792.25
2022-08-18T19:24:03.533Z,101757.34
2022-08-18T19:26:40.495Z,101697.69
2022-08-18T19:29:15.545Z,101686.97
2022-08-18T19:31:48.705Z,101661.72
2022-08-18T19:34:22.819Z,101654.53
2022-08-18T19:37:02.943Z,101642.28
2022-08-18T19:39:38.471Z,101618.56
2022-08-18T19:42:15.964Z,101615.94
2022-08-18T19:45:06.522Z,101599.56
2022-08-18T19:47:42.932Z,101610.34
2022-08-18T19:50:19.027Z,101593.81
2022-08-18T19:53:02.614Z,101590.69
2022-08-18T19:55:44.158Z,101599.81
2022-08-18T19:58:33.941Z,101628.97
2022-08-18T20:01:05.750Z,101634.47
2022-08-18T20:03:58.550Z,101643.38
2022-08-18T20:07:01.428Z,101686.59
2022-08-18T20:09:58.991Z,101727.19
2022-08-18T20:12:45.334Z,101805.75
2022-08-18T20:15:17.854Z,101872.81
2022-08-18T20:18:07.815Z,101910.84
2022-08-18T20:20:38.703Z,101978.72
2022-08-18T20:23:31.854Z,102021.88
2022-08-18T20:25:59.859Z,102070.28
2022-08-18T20:28:40.508Z,102113.53
2022-08-18T20:31:16.355Z,102142.59
2022-08-18T20:34:11.084Z,102172.41
2022-08-18T20:36:43.769Z,102199.72
2022-08-18T20:39:34.993Z,102205.00
2022-08-18T20:42:04.144Z,102236.72
2022-08-18T20:44:53.320Z,102254.25
2022-08-18T20:47:42.089Z,102293.84
2022-08-18T20:50:57.466Z,102309.03
2022-08-18T20:54:04.124Z,102307.53
2022-08-18T20:56:46.438Z,102370.09
2022-08-18T20:59:20.294Z,102405.38
2022-08-18T21:02:00.818Z,102475.06
2022-08-18T21:04:56.357Z,102512.25
2022-08-18T21:07:37.097Z,102566.03
2022-08-18T21:10:13.059Z,102623.25
2022-08-18T21:12:52.653Z,102727.38
2022-08-18T21:15:24.420Z,102775.88
2022-08-18T21:17:58.887Z,102789.09
2022-08-18T21:20:29.773Z,102797.09
2022-08-18T21:23:06.975Z,102845.59
2022-08-18T21:25:35.450Z,102883.47
2022-08-18T21:28:06.969Z,102917.84
2022-08-18T21:30:35.079Z,102979.63
2022-08-18T21:33:20.235Z,103009.53
2022-08-18T21:35:51.655Z,103021.97
2022-08-18T21:38:27.614Z,103043.25
2022-08-18T21:40:59.196Z,103097.94
2022-08-18T21:43:49.184Z,103046.13
2022-08-18T21:46:25.965Z,103132.63
2022-08-18T21:48:56.279Z,103237.47
2022-08-18T21:51:28.775Z,103324.75
2022-08-18T21:53:57.049Z,103351.28
2022-08-18T21:56:27.851Z,103408.53
2022-08-18T21:59:08.042Z,103354.69
2022-08-18T22:01:37.806Z,103360.19
2022-08-18T22:04:18.313Z,103376.97
2022-08-18T22:06:53.803Z,103342.47
2022-08-18T22:09:41.988Z,103332.78
2022-08-18T22:12:48.827Z,103256.13
2022-08-18T22:15:20.759Z,103279.09
2022-08-18T22:17:55.593Z,103240.41
2022-08-18T22:20:41.877Z,102898.69
2022-08-18T22:23:41.655Z,102834.41
2022-08-18T22:26:13.623Z,102772.78
2022-08-18T22:28:54.995Z,102712.09
2022-08-18T22:31:24.090Z,102686.44
2022-08-18T22:33:54.221Z,102646.97
2022-08-18T22:36:26.609Z,102511.16
2022-08-18T22:38:56.303Z,102420.38
2022-08-18T22:41:25.644Z,102382.56
2022-08-18T22:43:55.457Z,102336.00
2022-08-18T22:46:25.177Z,101782.06
2022-08-18T22:48:54.217Z,101753.94
2022-08-18T22:51:24.470Z,101728.47
2022-08-18T22:53:52.989Z,101690.66
2022-08-18T22:56:34.373Z,101641.28
2022-08-18T22:59:16.005Z,101592.81
2022-08-18T23:01:53.453Z,101530.38
2022-08-18T23:04:25.474Z,101502.28
2022-08-18T23:06:53.903Z,101510.22
2022-08-18T23:09:25.304Z,101489.94
2022-08-18T23:11:57.414Z,101463.41
2022-08-18T23:14:26.035Z,101433.50
2022-08-18T23:16:54.124Z,101399.91
2022-08-18T23:19:22.857Z,101357.53
2022-08-18T23:21:51.750Z,101350.56
2022-08-18T23:24:21.340Z,101340.00
2022-08-18T23:26:49.838Z,101330.28
2022-08-18T23:29:20.014Z,101331.84
2022-08-18T23:31:48.991Z,101315.06
2022-08-18T23:34:18.997Z,101296.56
2022-08-18T23:36:52.483Z,101280.00
2022-08-18T23:39:20.438Z,101275.78
2022-08-18T23:41:48.455Z,101258.25
2022-08-18T23:44:18.790Z,101258.34
2022-08-18T23:46:47.040Z,101254.97
2022-08-18T23:49:15.765Z,101262.91
2022-08-18T23:51:45.396Z,101255.69
2022-08-18T23:54:17.722Z,101232.69
2022-08-18T23:56:46.814Z,101216.84
2022-08-18T23:59:16.439Z,101199.19
